createdAt,value
2019-01-21T00:01:59.936Z,42.45
2019-01-21T00:04:27.533Z,39.30
2019-01-21T00:06:55.193Z,34.80
2019-01-21T00:09:22.269Z,34.98
2019-01-21T00:11:49.707Z,38.92
2019-01-21T00:14:17.514Z,36.20
2019-01-21T00:16:45.042Z,39.53
2019-01-21T00:19:12.353Z,40.15
2019-01-21T00:21:39.839Z,42.08
2019-01-21T00:24:07.526Z,45.20
2019-01-21T00:26:35.148Z,40.25
2019-01-21T00:29:02.322Z,43.50
2019-01-21T00:31:30.185Z,36.15
2019-01-21T00:33:57.594Z,40.90
2019-01-21T00:36:25.145Z,42.45
2019-01-21T00:38:52.836Z,28.50
2019-01-21T00:41:20.177Z,30.27
2019-01-21T00:43:47.884Z,30.90
2019-01-21T00:46:14.974Z,33.65
2019-01-21T00:48:42.302Z,32.50
2019-01-21T00:51:09.906Z,48.02
2019-01-21T00:53:37.048Z,40.45
2019-01-21T00:56:04.560Z,35.50
2019-01-21T00:58:31.600Z,28.70
2019-01-21T01:00:58.961Z,31.55
2019-01-21T01:03:25.862Z,32.45
2019-01-21T01:05:53.354Z,29.63
2019-01-21T01:08:20.437Z,36.23
2019-01-21T01:10:47.777Z,39.95
2019-01-21T01:13:15.354Z,28.92
2019-01-21T01:15:42.699Z,30.68
2019-01-21T01:18:10.508Z,32.15
2019-01-21T01:20:38.312Z,31.05
2019-01-21T01:23:05.857Z,47.45
2019-01-21T01:25:33.929Z,34.13
2019-01-21T01:28:00.981Z,40.50
2019-01-21T01:30:28.677Z,34.50
2019-01-21T01:32:56.032Z,35.17
2019-01-21T01:35:23.071Z,35.60
2019-01-21T01:37:50.781Z,36.23
2019-01-21T01:40:19.164Z,25.97
2019-01-21T01:42:46.593Z,35.85
2019-01-21T01:45:17.730Z,33.58
2019-01-21T01:47:45.168Z,40.83
2019-01-21T01:50:12.970Z,50.48
2019-01-21T01:52:40.686Z,51.68
2019-01-21T01:55:08.377Z,46.60
2019-01-21T01:57:35.901Z,40.45
2019-01-21T02:00:07.816Z,38.20
2019-01-21T02:02:35.387Z,33.05
2019-01-21T02:05:03.222Z,24.07
2019-01-21T02:07:30.970Z,27.90
2019-01-21T02:09:58.525Z,32.90
2019-01-21T02:12:25.971Z,27.67
2019-01-21T02:14:53.639Z,30.30
2019-01-21T02:17:21.002Z,28.35
2019-01-21T02:19:52.941Z,27.87
2019-01-21T02:22:22.465Z,31.70
2019-01-21T02:24:52.809Z,28.92
2019-01-21T02:27:49.642Z,37.23
2019-01-21T02:30:40.206Z,35.45
2019-01-21T02:34:04.553Z,40.60
2019-01-21T02:37:05.291Z,29.50
2019-01-21T02:39:50.401Z,30.60
2019-01-21T02:42:24.638Z,32.90
2019-01-21T02:45:00.380Z,28.20
2019-01-21T02:47:59.762Z,31.87
2019-01-21T02:51:01.400Z,27.60
2019-01-21T02:54:04.242Z,28.80
2019-01-21T02:57:13.613Z,26.87
2019-01-21T03:00:25.345Z,28.75
2019-01-21T03:03:20.017Z,28.20
2019-01-21T03:06:24.291Z,29.10
2019-01-21T03:09:33.215Z,26.00
2019-01-21T03:12:39.576Z,31.73
2019-01-21T03:15:46.319Z,25.62
2019-01-21T03:18:49.717Z,33.13
2019-01-21T03:22:04.634Z,41.33
2019-01-21T03:25:12.828Z,27.98
2019-01-21T03:28:06.560Z,25.77
2019-01-21T03:31:31.084Z,25.75
2019-01-21T03:34:27.670Z,28.12
2019-01-21T03:37:35.271Z,23.85
2019-01-21T03:40:47.854Z,28.98
2019-01-21T03:43:42.203Z,28.17
2019-01-21T03:46:34.050Z,33.85
2019-01-21T03:49:12.094Z,33.60
2019-01-21T03:52:16.015Z,31.73
2019-01-21T03:54:48.864Z,33.38
2019-01-21T03:57:34.968Z,35.83
2019-01-21T04:00:20.809Z,34.55
2019-01-21T04:03:31.410Z,48.48
2019-01-21T04:06:57.570Z,31.48
2019-01-21T04:09:38.999Z,31.73
2019-01-21T04:13:00.198Z,36.33
2019-01-21T04:15:58.449Z,35.30
2019-01-21T04:19:08.557Z,33.60
2019-01-21T04:22:22.809Z,33.15
2019-01-21T04:25:33.624Z,31.62
2019-01-21T04:28:24.686Z,31.73
2019-01-21T04:31:29.710Z,35.17
2019-01-21T04:34:34.185Z,35.63
2019-01-21T04:37:23.659Z,34.60
2019-01-21T04:40:23.006Z,27.95
2019-01-21T04:43:20.390Z,30.20
2019-01-21T04:46:35.245Z,31.05
2019-01-21T04:49:41.709Z,35.17
2019-01-21T04:52:55.553Z,31.62
2019-01-21T04:55:43.274Z,40.80
2019-01-21T04:58:35.375Z,33.18
2019-01-21T05:01:50.567Z,33.23
2019-01-21T05:04:37.897Z,31.05
2019-01-21T05:07:44.339Z,32.38
2019-01-21T05:10:37.232Z,30.35
2019-01-21T05:13:41.694Z,33.20
2019-01-21T05:16:44.828Z,31.15
2019-01-21T05:19:26.734Z,33.25
2019-01-21T05:22:18.327Z,34.70
2019-01-21T05:25:39.465Z,42.98
2019-01-21T05:28:57.570Z,35.03
2019-01-21T05:32:12.522Z,43.83
2019-01-21T05:35:16.333Z,105.90
2019-01-21T05:38:21.156Z,130.35
2019-01-21T05:41:33.317Z,106.80
2019-01-21T05:44:35.577Z,114.67
2019-01-21T05:47:36.834Z,118.97
2019-01-21T05:50:14.465Z,103.75
2019-01-21T05:53:50.612Z,118.37
2019-01-21T05:56:51.479Z,105.40
2019-01-21T06:00:14.358Z,91.82
2019-01-21T06:03:20.215Z,82.80
2019-01-21T06:06:19.064Z,78.62
2019-01-21T06:09:42.016Z,78.37
2019-01-21T06:12:50.102Z,65.75
2019-01-21T06:15:51.883Z,67.80
2019-01-21T06:19:02.390Z,67.72
2019-01-21T06:21:56.237Z,71.97
2019-01-21T06:24:57.993Z,67.62
2019-01-21T06:28:06.758Z,64.17
2019-01-21T06:31:06.414Z,50.33
2019-01-21T06:34:14.249Z,48.00
2019-01-21T06:36:48.468Z,69.17
2019-01-21T06:39:51.269Z,48.52
2019-01-21T06:43:03.361Z,47.13
2019-01-21T06:46:11.242Z,59.85
2019-01-21T06:49:24.945Z,60.63
2019-01-21T06:52:25.302Z,57.70
2019-01-21T06:55:26.660Z,59.18
2019-01-21T06:58:35.734Z,68.37
2019-01-21T07:01:52.168Z,71.42
2019-01-21T07:05:02.721Z,64.10
2019-01-21T07:08:12.878Z,73.10
2019-01-21T07:11:05.481Z,57.58
2019-01-21T07:13:57.097Z,73.72
2019-01-21T07:17:05.953Z,129.80
2019-01-21T07:20:30.116Z,87.53
2019-01-21T07:23:25.038Z,73.15
2019-01-21T07:26:23.280Z,79.30
2019-01-21T07:29:28.244Z,79.22
2019-01-21T07:32:25.025Z,72.35
2019-01-21T07:35:24.521Z,71.70
2019-01-21T07:38:48.453Z,59.95
2019-01-21T07:41:46.272Z,63.80
2019-01-21T07:44:32.325Z,52.95
2019-01-21T07:47:29.565Z,49.98
2019-01-21T07:50:41.727Z,69.15
2019-01-21T07:53:40.038Z,83.45
2019-01-21T07:57:00.648Z,64.97
2019-01-21T08:00:07.726Z,66.37
2019-01-21T08:03:00.729Z,72.15
2019-01-21T08:06:27.902Z,70.25
2019-01-21T08:09:50.957Z,62.35
2019-01-21T08:12:44.270Z,63.25
2019-01-21T08:15:42.477Z,76.92
2019-01-21T08:18:41.187Z,60.17
2019-01-21T08:21:28.593Z,56.73
2019-01-21T08:24:29.880Z,59.13
2019-01-21T08:27:22.213Z,53.50
2019-01-21T08:30:40.661Z,45.50
2019-01-21T08:33:54.137Z,54.75
2019-01-21T08:37:09.337Z,64.75
2019-01-21T08:40:14.065Z,57.93
2019-01-21T08:43:12.693Z,67.55
2019-01-21T08:46:16.526Z,72.65
2019-01-21T08:49:37.049Z,63.42
2019-01-21T08:52:58.007Z,40.85
2019-01-21T08:55:59.200Z,41.37
2019-01-21T08:58:55.277Z,40.50
2019-01-21T09:02:12.745Z,40.67
2019-01-21T09:05:18.396Z,40.80
2019-01-21T09:08:11.826Z,39.63
2019-01-21T09:11:22.233Z,37.63
2019-01-21T09:13:58.418Z,41.77
2019-01-21T09:17:16.287Z,43.83
2019-01-21T09:20:10.779Z,43.83
2019-01-21T09:22:51.066Z,39.78
2019-01-21T09:25:59.767Z,37.55
2019-01-21T09:28:50.712Z,39.20
2019-01-21T09:31:50.469Z,35.92
2019-01-21T09:34:30.556Z,48.28
2019-01-21T09:37:14.017Z,42.43
2019-01-21T09:40:15.822Z,40.50
2019-01-21T09:43:20.169Z,38.98
2019-01-21T09:46:28.202Z,37.00
2019-01-21T09:48:54.804Z,46.08
2019-01-21T09:51:23.646Z,87.65
2019-01-21T09:53:52.807Z,79.65
2019-01-21T09:56:20.462Z,93.07
2019-01-21T09:58:50.063Z,47.62
2019-01-21T10:01:17.509Z,40.63
2019-01-21T10:03:44.969Z,34.95
2019-01-21T10:06:13.916Z,33.80
2019-01-21T10:09:13.830Z,37.00
2019-01-21T10:12:05.711Z,39.15
2019-01-21T10:15:12.945Z,37.58
2019-01-21T10:18:22.025Z,47.45
2019-01-21T10:21:34.744Z,36.95
2019-01-21T10:25:05.154Z,36.05
2019-01-21T10:27:59.477Z,33.90
2019-01-21T10:30:52.526Z,39.53
2019-01-21T10:34:07.978Z,36.08
2019-01-21T10:37:03.910Z,43.85
2019-01-21T10:40:07.979Z,46.98
2019-01-21T10:42:55.992Z,35.80
2019-01-21T10:45:42.786Z,45.48
2019-01-21T10:48:19.441Z,32.53
2019-01-21T10:51:22.978Z,38.92
2019-01-21T10:54:00.685Z,34.45
2019-01-21T10:57:05.465Z,39.65
2019-01-21T10:59:56.369Z,33.70
2019-01-21T11:03:20.373Z,32.33
2019-01-21T11:06:05.740Z,37.58
2019-01-21T11:09:12.806Z,34.03
2019-01-21T11:12:37.670Z,30.20
2019-01-21T11:15:53.247Z,41.08
2019-01-21T11:18:42.781Z,32.30
2019-01-21T11:21:56.257Z,36.85
2019-01-21T11:25:23.490Z,42.38
2019-01-21T11:28:28.500Z,34.00
2019-01-21T11:31:30.725Z,43.45
2019-01-21T11:34:39.364Z,41.18
2019-01-21T11:37:45.242Z,36.73
2019-01-21T11:40:42.044Z,52.15
2019-01-21T11:43:36.533Z,40.83
2019-01-21T11:46:42.620Z,36.28
2019-01-21T11:49:32.794Z,51.73
2019-01-21T11:52:31.410Z,46.28
2019-01-21T11:55:29.218Z,39.42
2019-01-21T11:58:47.145Z,33.38
2019-01-21T12:01:27.466Z,35.05
2019-01-21T12:04:15.277Z,41.83
2019-01-21T12:07:11.062Z,36.90
2019-01-21T12:10:04.015Z,39.90
2019-01-21T12:13:00.674Z,39.45
2019-01-21T12:16:08.394Z,35.45
2019-01-21T12:19:22.138Z,37.05
2019-01-21T12:22:00.356Z,37.67
2019-01-21T12:24:41.420Z,39.53
2019-01-21T12:27:34.330Z,39.15
2019-01-21T12:30:40.047Z,37.85
2019-01-21T12:33:43.761Z,35.43
2019-01-21T12:36:23.818Z,34.98
2019-01-21T12:39:12.421Z,38.05
2019-01-21T12:42:25.785Z,40.35
2019-01-21T12:45:27.580Z,37.40
2019-01-21T12:48:05.681Z,34.30
2019-01-21T12:51:05.621Z,33.98
2019-01-21T12:54:00.112Z,41.28
2019-01-21T12:56:50.811Z,33.18
2019-01-21T12:59:36.770Z,33.78
2019-01-21T13:02:20.694Z,35.48
2019-01-21T13:05:04.417Z,38.25
2019-01-21T13:08:11.580Z,40.70
2019-01-21T13:10:55.776Z,33.40
2019-01-21T13:13:46.909Z,31.30
2019-01-21T13:16:54.777Z,38.30
2019-01-21T13:19:58.618Z,37.83
2019-01-21T13:23:02.330Z,31.40
2019-01-21T13:26:09.889Z,32.80
2019-01-21T13:29:08.384Z,37.08
2019-01-21T13:32:14.489Z,39.58
2019-01-21T13:35:36.235Z,35.60
2019-01-21T13:38:48.126Z,33.53
2019-01-21T13:41:58.376Z,44.55
2019-01-21T13:44:55.812Z,38.80
2019-01-21T13:47:31.806Z,41.18
2019-01-21T13:50:22.198Z,31.15
2019-01-21T13:53:29.753Z,35.52
2019-01-21T13:56:22.908Z,35.30
2019-01-21T13:59:24.085Z,35.50
2019-01-21T14:02:20.481Z,34.78
2019-01-21T14:05:31.060Z,33.75
2019-01-21T14:08:13.094Z,34.20
2019-01-21T14:10:58.526Z,37.67
2019-01-21T14:13:32.771Z,43.70
2019-01-21T14:16:22.178Z,39.03
2019-01-21T14:19:09.745Z,49.23
2019-01-21T14:22:14.596Z,36.53
2019-01-21T14:25:30.403Z,35.25
2019-01-21T14:28:48.607Z,32.53
2019-01-21T14:31:54.718Z,35.35
2019-01-21T14:34:59.130Z,38.13
2019-01-21T14:38:13.802Z,34.58
2019-01-21T14:41:24.380Z,32.80
2019-01-21T14:44:28.197Z,31.90
2019-01-21T14:47:40.878Z,32.05
2019-01-21T14:50:50.592Z,37.53
2019-01-21T14:53:50.658Z,45.43
2019-01-21T14:56:38.970Z,36.23
2019-01-21T14:59:33.162Z,42.67
2019-01-21T15:02:42.175Z,41.70
2019-01-21T15:05:45.643Z,37.48
2019-01-21T15:08:27.012Z,49.08
2019-01-21T15:11:39.873Z,40.52
2019-01-21T15:14:20.407Z,35.98
2019-01-21T15:17:26.786Z,36.35
2019-01-21T15:20:06.048Z,30.12
2019-01-21T15:23:23.370Z,39.27
2019-01-21T15:26:31.325Z,35.15
2019-01-21T15:29:29.531Z,34.45
2019-01-21T15:32:39.600Z,38.35
2019-01-21T15:35:37.231Z,37.50
2019-01-21T15:38:32.238Z,35.80
2019-01-21T15:41:35.209Z,38.35
2019-01-21T15:44:37.049Z,91.05
2019-01-21T15:47:29.900Z,87.78
2019-01-21T15:51:04.972Z,54.98
2019-01-21T15:53:37.493Z,52.85
2019-01-21T15:56:40.410Z,122.53
2019-01-21T15:59:33.061Z,60.12
2019-01-21T16:02:34.446Z,58.65
2019-01-21T16:05:12.533Z,50.70
2019-01-21T16:08:13.934Z,42.73
2019-01-21T16:10:56.010Z,53.50
2019-01-21T16:13:34.964Z,50.95
2019-01-21T16:16:20.912Z,76.53
2019-01-21T16:18:54.990Z,83.07
2019-01-21T16:21:50.714Z,68.78
2019-01-21T16:24:49.682Z,47.15
2019-01-21T16:27:41.982Z,49.35
2019-01-21T16:30:21.521Z,46.00
2019-01-21T16:33:20.783Z,48.63
2019-01-21T16:36:32.753Z,64.30
2019-01-21T16:39:20.018Z,58.23
2019-01-21T16:42:14.777Z,50.12
2019-01-21T16:44:43.850Z,46.18
2019-01-21T16:47:11.102Z,51.83
2019-01-21T16:49:38.933Z,58.92
2019-01-21T16:52:06.378Z,55.95
2019-01-21T16:54:34.253Z,60.33
2019-01-21T16:57:02.129Z,56.18
2019-01-21T16:59:29.556Z,48.83
2019-01-21T17:01:57.426Z,80.83
2019-01-21T17:04:24.597Z,148.00
2019-01-21T17:06:52.666Z,130.97
2019-01-21T17:09:19.734Z,89.70
2019-01-21T17:11:47.274Z,79.92
2019-01-21T17:14:14.699Z,63.15
2019-01-21T17:16:42.120Z,48.78
2019-01-21T17:19:09.760Z,65.20
2019-01-21T17:21:37.048Z,104.70
2019-01-21T17:24:04.658Z,110.42
2019-01-21T17:26:31.593Z,114.62
2019-01-21T17:28:58.672Z,105.20
2019-01-21T17:31:26.114Z,91.92
2019-01-21T17:33:54.124Z,106.50
2019-01-21T17:36:21.809Z,141.97
2019-01-21T17:38:49.258Z,81.30
2019-01-21T17:41:16.605Z,71.87
2019-01-21T17:43:45.303Z,73.80
2019-01-21T17:46:13.014Z,241.55
2019-01-21T17:48:43.237Z,251.55
2019-01-21T17:51:10.561Z,200.93
2019-01-21T17:53:38.824Z,181.32
2019-01-21T17:56:06.829Z,137.10
2019-01-21T17:58:34.372Z,109.32
2019-01-21T18:01:01.314Z,111.70
2019-01-21T18:03:29.096Z,96.10
2019-01-21T18:05:57.055Z,75.35
2019-01-21T18:08:24.322Z,117.37
2019-01-21T18:10:52.052Z,90.05
2019-01-21T18:13:19.738Z,93.97
2019-01-21T18:15:47.194Z,82.95
2019-01-21T18:18:15.097Z,76.55
2019-01-21T18:20:42.347Z,69.85
2019-01-21T18:23:10.061Z,76.15
2019-01-21T18:25:37.404Z,88.25
2019-01-21T18:28:04.569Z,80.32
2019-01-21T18:30:32.230Z,86.00
2019-01-21T18:32:59.128Z,81.05
2019-01-21T18:35:26.820Z,72.03
2019-01-21T18:37:54.073Z,70.17
2019-01-21T18:40:21.695Z,58.52
2019-01-21T18:42:49.359Z,59.75
2019-01-21T18:45:19.757Z,57.90
2019-01-21T18:47:48.369Z,76.47
2019-01-21T18:50:15.749Z,109.63
2019-01-21T18:52:43.310Z,63.85
2019-01-21T18:55:10.569Z,82.35
2019-01-21T18:57:38.213Z,123.10
2019-01-21T19:00:09.333Z,114.17
2019-01-21T19:02:36.853Z,84.05
2019-01-21T19:05:04.972Z,84.80
2019-01-21T19:07:32.198Z,75.47
2019-01-21T19:09:59.832Z,76.30
2019-01-21T19:12:27.356Z,85.47
2019-01-21T19:14:54.853Z,86.20
2019-01-21T19:17:22.466Z,95.67
2019-01-21T19:19:49.741Z,128.40
2019-01-21T19:22:17.274Z,122.07
2019-01-21T19:24:45.063Z,119.97
2019-01-21T19:27:15.168Z,85.65
2019-01-21T19:29:42.222Z,90.32
2019-01-21T19:32:10.085Z,90.67
2019-01-21T19:34:37.947Z,85.35
2019-01-21T19:37:05.537Z,72.53
2019-01-21T19:39:33.096Z,73.87
2019-01-21T19:42:00.930Z,72.15
2019-01-21T19:44:28.654Z,72.67
2019-01-21T19:46:56.254Z,102.92
2019-01-21T19:49:23.301Z,107.78
2019-01-21T19:51:50.982Z,75.42
2019-01-21T19:54:18.833Z,89.55
2019-01-21T19:56:46.435Z,67.60
2019-01-21T19:59:13.721Z,85.00
2019-01-21T20:01:41.658Z,73.60
2019-01-21T20:04:09.037Z,93.00
2019-01-21T20:06:36.421Z,102.40
2019-01-21T20:09:06.569Z,111.75
2019-01-21T20:11:34.996Z,70.10
2019-01-21T20:14:03.047Z,50.92
2019-01-21T20:16:30.945Z,66.90
2019-01-21T20:18:59.121Z,69.77
2019-01-21T20:21:26.945Z,75.78
2019-01-21T20:23:54.573Z,74.72
2019-01-21T20:26:22.177Z,74.47
2019-01-21T20:28:49.496Z,85.00
2019-01-21T20:31:17.337Z,73.60
2019-01-21T20:33:45.262Z,91.20
2019-01-21T20:36:13.119Z,91.50
2019-01-21T20:38:40.984Z,63.25
2019-01-21T20:41:08.667Z,77.17
2019-01-21T20:43:35.946Z,108.42
2019-01-21T20:46:03.273Z,84.92
2019-01-21T20:48:31.282Z,86.45
2019-01-21T20:50:59.075Z,79.12
2019-01-21T20:53:26.307Z,61.55
2019-01-21T20:55:54.062Z,58.15
2019-01-21T20:58:21.405Z,86.90
2019-01-21T21:00:49.035Z,81.50
2019-01-21T21:03:16.897Z,82.17
2019-01-21T21:05:43.986Z,83.95
2019-01-21T21:08:11.622Z,83.47
2019-01-21T21:10:39.534Z,79.22
2019-01-21T21:13:06.696Z,70.25
2019-01-21T21:15:34.295Z,75.85
2019-01-21T21:18:02.441Z,59.45
2019-01-21T21:20:29.985Z,49.08
2019-01-21T21:22:57.425Z,62.45
2019-01-21T21:25:25.120Z,63.00
2019-01-21T21:27:52.754Z,71.17
2019-01-21T21:30:25.441Z,64.65
2019-01-21T21:32:53.037Z,60.85
2019-01-21T21:35:20.979Z,66.40
2019-01-21T21:37:49.001Z,66.35
2019-01-21T21:40:17.101Z,76.67
2019-01-21T21:42:44.818Z,58.13
2019-01-21T21:45:13.441Z,65.57
2019-01-21T21:47:41.184Z,61.53
2019-01-21T21:50:11.885Z,55.05
2019-01-21T21:52:40.425Z,53.80
2019-01-21T21:55:08.821Z,48.58
2019-01-21T21:57:36.314Z,53.65
2019-01-21T22:00:05.847Z,52.17
2019-01-21T22:02:34.273Z,52.65
2019-01-21T22:05:02.527Z,50.50
2019-01-21T22:07:30.570Z,57.17
2019-01-21T22:09:58.388Z,59.55
2019-01-21T22:12:26.269Z,58.28
2019-01-21T22:14:53.737Z,56.60
2019-01-21T22:17:21.941Z,59.98
2019-01-21T22:19:49.674Z,46.58
2019-01-21T22:22:17.569Z,50.17
2019-01-21T22:24:45.618Z,60.28
2019-01-21T22:27:13.536Z,59.23
2019-01-21T22:29:41.473Z,67.03
2019-01-21T22:32:08.905Z,59.80
2019-01-21T22:34:36.731Z,52.90
2019-01-21T22:37:04.418Z,58.68
2019-01-21T22:39:32.430Z,64.53
2019-01-21T22:42:00.101Z,82.90
2019-01-21T22:44:27.593Z,100.00
2019-01-21T22:46:54.984Z,92.40
2019-01-21T22:49:23.069Z,73.80
2019-01-21T22:51:50.767Z,72.45
2019-01-21T22:54:17.961Z,104.07
2019-01-21T22:56:45.608Z,140.15
2019-01-21T22:59:12.988Z,150.25
2019-01-21T23:01:41.102Z,146.95
2019-01-21T23:04:08.541Z,116.55
2019-01-21T23:06:35.964Z,101.38
2019-01-21T23:09:07.375Z,112.03
2019-01-21T23:11:35.095Z,113.28
2019-01-21T23:14:02.436Z,100.05
2019-01-21T23:16:29.901Z,96.67
2019-01-21T23:18:57.804Z,74.05
2019-01-21T23:21:25.646Z,69.85
2019-01-21T23:23:53.094Z,60.63
2019-01-21T23:26:20.488Z,69.67
2019-01-21T23:28:47.965Z,70.35
2019-01-21T23:31:15.473Z,66.20
2019-01-21T23:33:42.908Z,63.17
2019-01-21T23:36:10.013Z,63.40
2019-01-21T23:38:37.582Z,69.53
2019-01-21T23:41:04.828Z,64.58
2019-01-21T23:43:32.585Z,52.45
2019-01-21T23:46:00.305Z,50.28
2019-01-21T23:48:27.666Z,60.08
2019-01-21T23:50:55.266Z,54.90
2019-01-21T23:53:22.661Z,64.92
2019-01-21T23:55:50.025Z,56.37
2019-01-21T23:58:17.230Z,63.42
